createdAt,value
2022-12-27T00:02:00.562Z,4.61
2022-12-27T00:04:27.649Z,4.60
2022-12-27T00:06:54.462Z,4.59
2022-12-27T00:09:21.161Z,4.56
2022-12-27T00:11:47.839Z,4.59
2022-12-27T00:14:14.882Z,4.59
2022-12-27T00:16:41.578Z,4.59
2022-12-27T00:19:08.261Z,4.54
2022-12-27T00:21:36.340Z,4.48
2022-12-27T00:24:02.918Z,4.51
2022-12-27T00:26:31.939Z,4.44
2022-12-27T00:28:59.434Z,4.48
2022-12-27T00:31:29.036Z,4.55
2022-12-27T00:33:57.857Z,4.51
2022-12-27T00:36:26.759Z,4.48
2022-12-27T00:38:54.209Z,4.44
2022-12-27T00:41:21.506Z,4.50
2022-12-27T00:43:48.939Z,4.48
2022-12-27T00:46:16.299Z,4.43
2022-12-27T00:48:43.170Z,4.37
2022-12-27T00:51:16.104Z,4.31
2022-12-27T00:53:43.160Z,4.36
2022-12-27T00:56:16.269Z,4.35
2022-12-27T00:58:43.245Z,4.28
2022-12-27T01:01:13.804Z,4.36
2022-12-27T01:03:40.631Z,4.17
2022-12-27T01:06:13.515Z,4.21
2022-12-27T01:08:40.594Z,4.23
2022-12-27T01:11:08.359Z,4.28
2022-12-27T01:13:35.973Z,4.26
2022-12-27T01:16:02.601Z,4.28
2022-12-27T01:18:29.190Z,4.21
2022-12-27T01:20:55.774Z,4.24
2022-12-27T01:23:22.446Z,4.26
2022-12-27T01:25:49.071Z,4.28
2022-12-27T01:28:15.701Z,4.35
2022-12-27T01:30:42.349Z,4.17
2022-12-27T01:33:08.906Z,4.30
2022-12-27T01:35:35.599Z,4.29
2022-12-27T01:38:02.159Z,4.29
2022-12-27T01:40:28.791Z,4.30
2022-12-27T01:42:56.817Z,4.32
2022-12-27T01:45:24.717Z,4.31
2022-12-27T01:48:19.477Z,4.32
2022-12-27T01:50:56.423Z,4.31
2022-12-27T01:53:30.087Z,4.32
2022-12-27T01:56:24.807Z,4.30
2022-12-27T01:59:02.717Z,4.27
2022-12-27T02:01:37.900Z,4.18
2022-12-27T02:04:09.309Z,4.16
2022-12-27T02:06:38.572Z,4.23
2022-12-27T02:09:35.104Z,4.24
2022-12-27T02:12:05.577Z,4.18
2022-12-27T02:14:41.046Z,4.21
2022-12-27T02:17:15.098Z,4.18
2022-12-27T02:19:41.601Z,4.11
2022-12-27T02:22:14.200Z,4.17
2022-12-27T02:25:02.290Z,4.22
2022-12-27T02:28:07.958Z,4.25
2022-12-27T02:30:35.827Z,4.23
2022-12-27T02:33:18.655Z,4.18
2022-12-27T02:35:53.486Z,4.13
2022-12-27T02:38:42.631Z,4.27
2022-12-27T02:41:30.452Z,4.17
2022-12-27T02:44:16.330Z,4.18
2022-12-27T02:47:02.965Z,4.19
2022-12-27T02:49:49.356Z,4.15
2022-12-27T02:52:49.860Z,4.27
2022-12-27T02:55:25.553Z,4.28
2022-12-27T02:58:01.242Z,4.25
2022-12-27T03:00:51.601Z,4.13
2022-12-27T03:03:39.634Z,4.07
2022-12-27T03:06:27.802Z,4.10
2022-12-27T03:09:04.494Z,4.10
2022-12-27T03:11:59.594Z,4.00
2022-12-27T03:14:50.447Z,3.95
2022-12-27T03:17:49.156Z,3.92
2022-12-27T03:20:36.919Z,4.05
2022-12-27T03:23:22.727Z,4.05
2022-12-27T03:25:52.145Z,4.00
2022-12-27T03:28:44.662Z,3.92
2022-12-27T03:31:48.043Z,3.95
2022-12-27T03:34:32.375Z,3.87
2022-12-27T03:37:32.554Z,3.88
2022-12-27T03:40:15.689Z,3.92
2022-12-27T03:43:07.846Z,3.87
2022-12-27T03:46:05.070Z,3.86
2022-12-27T03:48:39.127Z,3.90
2022-12-27T03:51:07.541Z,3.85
2022-12-27T03:53:42.051Z,3.85
2022-12-27T03:56:10.149Z,3.85
2022-12-27T03:58:36.824Z,3.91
2022-12-27T04:01:03.750Z,3.87
2022-12-27T04:03:30.371Z,3.86
2022-12-27T04:05:57.161Z,3.89
2022-12-27T04:08:42.184Z,3.88
2022-12-27T04:11:27.584Z,3.79
2022-12-27T04:14:12.539Z,3.71
2022-12-27T04:16:57.819Z,3.69
2022-12-27T04:19:42.817Z,3.74
2022-12-27T04:22:27.956Z,3.79
2022-12-27T04:25:13.096Z,3.70
2022-12-27T04:27:58.425Z,3.59
2022-12-27T04:30:43.297Z,3.64
2022-12-27T04:33:28.217Z,3.62
2022-12-27T04:35:54.880Z,3.71
2022-12-27T04:38:21.571Z,3.71
2022-12-27T04:41:06.688Z,3.80
2022-12-27T04:43:51.517Z,3.72
2022-12-27T04:46:42.607Z,3.70
2022-12-27T04:49:39.148Z,3.72
2022-12-27T04:52:33.923Z,3.60
2022-12-27T04:55:17.137Z,3.51
2022-12-27T04:57:43.836Z,3.56
2022-12-27T05:00:29.448Z,3.53
2022-12-27T05:02:57.228Z,3.53
2022-12-27T05:05:24.985Z,3.36
2022-12-27T05:08:11.506Z,3.44
2022-12-27T05:10:56.834Z,3.34
2022-12-27T05:13:42.335Z,3.24
2022-12-27T05:16:09.136Z,3.41
2022-12-27T05:18:35.787Z,3.22
2022-12-27T05:21:06.728Z,3.31
2022-12-27T05:23:58.832Z,3.31
2022-12-27T05:26:29.983Z,3.32
2022-12-27T05:28:59.031Z,3.21
2022-12-27T05:31:27.964Z,3.25
2022-12-27T05:33:54.722Z,3.30
2022-12-27T05:36:21.986Z,3.22
2022-12-27T05:38:49.020Z,3.19
2022-12-27T05:41:16.274Z,3.20
2022-12-27T05:43:43.040Z,3.20
2022-12-27T05:46:21.010Z,3.18
2022-12-27T05:48:47.952Z,3.17
2022-12-27T05:51:20.059Z,3.26
2022-12-27T05:53:47.971Z,3.14
2022-12-27T05:56:16.760Z,3.17
2022-12-27T05:58:43.779Z,3.16
2022-12-27T06:01:16.667Z,3.12
2022-12-27T06:03:43.583Z,3.14
2022-12-27T06:06:10.670Z,3.10
2022-12-27T06:08:38.494Z,3.13
2022-12-27T06:11:09.340Z,3.21
2022-12-27T06:13:37.071Z,3.33
2022-12-27T06:16:05.367Z,3.39
2022-12-27T06:18:34.839Z,3.32
2022-12-27T06:21:06.977Z,3.44
2022-12-27T06:23:34.955Z,3.44
2022-12-27T06:26:11.189Z,3.56
2022-12-27T06:28:37.766Z,3.66
2022-12-27T06:31:04.814Z,3.87
2022-12-27T06:33:32.173Z,3.82
2022-12-27T06:35:59.017Z,4.02
2022-12-27T06:38:25.648Z,4.14
2022-12-27T06:40:52.270Z,4.34
2022-12-27T06:43:18.872Z,4.44
2022-12-27T06:45:45.554Z,4.64
2022-12-27T06:48:12.159Z,4.81
2022-12-27T06:50:38.737Z,4.89
2022-12-27T06:53:05.370Z,5.13
2022-12-27T06:55:31.967Z,5.21
2022-12-27T06:57:58.583Z,5.31
2022-12-27T07:00:25.172Z,5.44
2022-12-27T07:02:51.854Z,5.60
2022-12-27T07:05:18.562Z,5.61
2022-12-27T07:07:45.156Z,5.63
2022-12-27T07:10:11.800Z,5.80
2022-12-27T07:12:38.698Z,5.88
2022-12-27T07:15:06.834Z,5.76
2022-12-27T07:17:36.062Z,5.93
2022-12-27T07:20:04.779Z,6.02
2022-12-27T07:22:31.493Z,5.83
2022-12-27T07:24:58.363Z,5.62
2022-12-27T07:27:25.336Z,5.54
2022-12-27T07:29:52.017Z,5.60
2022-12-27T07:32:18.818Z,5.75
2022-12-27T07:34:45.447Z,5.52
2022-12-27T07:37:12.139Z,5.48
2022-12-27T07:39:38.775Z,5.59
2022-12-27T07:42:08.399Z,5.85
2022-12-27T07:44:35.616Z,6.14
2022-12-27T07:47:02.211Z,6.71
2022-12-27T07:49:28.859Z,7.11
2022-12-27T07:51:55.542Z,6.92
2022-12-27T07:54:22.428Z,6.81
2022-12-27T07:56:49.012Z,7.18
2022-12-27T07:59:15.649Z,7.23
2022-12-27T08:02:00.806Z,7.27
2022-12-27T08:04:27.713Z,7.76
2022-12-27T08:07:06.622Z,8.16
2022-12-27T08:09:38.032Z,7.93
2022-12-27T08:12:04.941Z,7.40
2022-12-27T08:14:31.564Z,7.51
2022-12-27T08:17:03.913Z,8.37
2022-12-27T08:19:30.543Z,9.03
2022-12-27T08:21:57.103Z,9.13
2022-12-27T08:24:24.591Z,9.72
2022-12-27T08:26:51.209Z,9.54
2022-12-27T08:29:17.814Z,9.60
2022-12-27T08:31:44.489Z,10.13
2022-12-27T08:34:11.126Z,10.52
2022-12-27T08:39:24.639Z,10.68
2022-12-27T08:41:53.296Z,10.06
2022-12-27T08:44:19.881Z,10.15
2022-12-27T08:46:46.568Z,10.39
2022-12-27T08:49:13.195Z,10.05
2022-12-27T08:51:41.467Z,9.80
2022-12-27T08:54:09.037Z,9.21
2022-12-27T08:56:36.101Z,9.00
2022-12-27T08:59:03.073Z,8.83
2022-12-27T09:01:29.914Z,8.20
2022-12-27T09:03:56.650Z,8.45
2022-12-27T09:06:25.695Z,8.64
2022-12-27T09:08:53.002Z,8.58
2022-12-27T09:11:25.507Z,8.33
2022-12-27T09:13:52.287Z,8.39
2022-12-27T09:16:28.831Z,8.45
2022-12-27T09:18:57.469Z,8.58
2022-12-27T09:21:26.456Z,9.89
2022-12-27T09:23:54.233Z,11.21
2022-12-27T09:26:29.296Z,12.39
2022-12-27T09:28:57.390Z,13.58
2022-12-27T09:31:24.774Z,14.79
2022-12-27T09:33:52.640Z,15.09
2022-12-27T09:36:22.122Z,15.76
2022-12-27T09:38:49.976Z,15.08
2022-12-27T09:44:35.336Z,14.80
2022-12-27T09:47:15.347Z,15.73
2022-12-27T09:49:45.684Z,15.67
2022-12-27T09:52:18.006Z,15.91
2022-12-27T09:54:44.535Z,15.81
2022-12-27T09:57:20.397Z,14.04
2022-12-27T09:59:52.836Z,14.81
2022-12-27T10:02:25.355Z,14.53
2022-12-27T10:05:19.912Z,13.99
2022-12-27T10:08:06.907Z,14.24
2022-12-27T10:10:44.486Z,15.46
2022-12-27T10:13:27.815Z,16.92
2022-12-27T10:16:13.333Z,16.32
2022-12-27T10:19:01.305Z,17.23
2022-12-27T10:21:30.401Z,17.04
2022-12-27T10:24:06.635Z,18.34
2022-12-27T10:26:33.279Z,19.14
2022-12-27T10:29:04.642Z,20.12
2022-12-27T10:31:32.499Z,20.46
2022-12-27T10:34:00.396Z,21.54
2022-12-27T10:36:30.567Z,22.25
2022-12-27T10:38:57.325Z,22.61
2022-12-27T10:41:57.267Z,19.94
2022-12-27T10:44:24.110Z,21.22
2022-12-27T10:46:53.960Z,21.65
2022-12-27T10:49:24.200Z,19.22
2022-12-27T10:51:54.083Z,20.63
2022-12-27T10:54:20.700Z,21.36
2022-12-27T10:56:47.635Z,22.53
2022-12-27T10:59:21.866Z,23.42
2022-12-27T11:02:10.345Z,23.23
2022-12-27T11:04:37.203Z,23.15
2022-12-27T11:07:03.751Z,22.59
2022-12-27T11:09:32.667Z,23.19
2022-12-27T11:12:14.420Z,24.93
2022-12-27T11:14:53.771Z,25.23
2022-12-27T11:17:24.054Z,24.98
2022-12-27T11:19:50.820Z,25.17
2022-12-27T11:22:18.138Z,25.12
2022-12-27T11:24:48.268Z,26.09
2022-12-27T11:27:25.823Z,26.41
2022-12-27T11:29:56.148Z,27.51
2022-12-27T11:32:24.091Z,27.68
2022-12-27T11:34:54.234Z,27.48
2022-12-27T11:37:24.513Z,27.08
2022-12-27T11:40:21.550Z,24.76
2022-12-27T11:42:53.049Z,24.87
2022-12-27T11:45:26.662Z,23.05
2022-12-27T11:48:06.501Z,21.55
2022-12-27T11:51:15.360Z,20.31
2022-12-27T11:54:14.385Z,20.26
2022-12-27T11:56:48.101Z,20.81
2022-12-27T11:59:29.542Z,21.19
2022-12-27T12:02:14.249Z,22.33
2022-12-27T12:04:59.724Z,24.07
2022-12-27T12:07:35.618Z,25.23
2022-12-27T12:10:25.387Z,25.63
2022-12-27T12:13:19.814Z,25.40
2022-12-27T12:15:46.406Z,24.49
2022-12-27T12:18:27.875Z,24.71
2022-12-27T12:21:22.218Z,23.60
2022-12-27T12:24:08.347Z,24.51
2022-12-27T12:26:55.558Z,24.77
2022-12-27T12:29:47.356Z,25.39
2022-12-27T12:32:53.705Z,23.35
2022-12-27T12:35:44.638Z,24.05
2022-12-27T12:38:27.789Z,24.39
2022-12-27T12:41:03.227Z,25.00
2022-12-27T12:43:39.142Z,25.90
2022-12-27T12:46:42.734Z,25.94
2022-12-27T12:49:28.140Z,24.93
2022-12-27T12:52:16.160Z,26.30
2022-12-27T12:54:42.685Z,26.80
2022-12-27T12:57:28.117Z,24.79
2022-12-27T13:00:04.858Z,22.74
2022-12-27T13:02:34.665Z,21.44
2022-12-27T13:05:29.779Z,20.36
2022-12-27T13:08:10.021Z,19.65
2022-12-27T13:11:20.493Z,19.18
2022-12-27T13:14:05.649Z,19.30
2022-12-27T13:16:55.404Z,19.41
2022-12-27T13:19:46.371Z,18.47
2022-12-27T13:22:25.267Z,17.77
2022-12-27T13:25:07.127Z,17.49
2022-12-27T13:27:43.046Z,18.03
2022-12-27T13:30:22.562Z,18.18
2022-12-27T13:33:07.648Z,18.18
2022-12-27T13:35:54.443Z,19.11
2022-12-27T13:38:24.638Z,19.54
2022-12-27T13:41:09.175Z,18.77
2022-12-27T13:43:41.740Z,18.01
2022-12-27T13:46:23.534Z,17.37
2022-12-27T13:49:11.805Z,16.93
2022-12-27T13:51:42.657Z,16.60
2022-12-27T13:54:37.124Z,16.29
2022-12-27T13:57:19.654Z,15.92
2022-12-27T13:59:48.992Z,15.78
2022-12-27T14:02:37.058Z,15.53
2022-12-27T14:05:52.186Z,15.30
2022-12-27T14:08:37.086Z,15.13
2022-12-27T14:11:17.224Z,14.97
2022-12-27T14:13:44.515Z,14.80
2022-12-27T14:16:22.608Z,14.80
2022-12-27T14:18:52.083Z,14.65
2022-12-27T14:21:41.488Z,14.47
2022-12-27T14:24:45.832Z,14.21
2022-12-27T14:27:40.030Z,14.15
2022-12-27T14:30:12.242Z,13.89
2022-12-27T14:33:02.118Z,13.65
2022-12-27T14:36:06.510Z,13.45
2022-12-27T14:39:01.045Z,13.38
2022-12-27T14:41:54.820Z,13.28
2022-12-27T14:44:58.666Z,13.33
2022-12-27T14:48:06.817Z,13.64
2022-12-27T14:50:55.035Z,13.74
2022-12-27T14:53:43.064Z,13.94
2022-12-27T14:56:21.832Z,14.02
2022-12-27T14:59:06.166Z,14.11
2022-12-27T15:01:44.908Z,14.16
2022-12-27T15:04:28.452Z,14.26
2022-12-27T15:07:22.410Z,14.32
2022-12-27T15:10:04.690Z,14.32
2022-12-27T15:12:55.774Z,14.33
2022-12-27T15:15:41.145Z,14.40
2022-12-27T15:18:41.375Z,14.36
2022-12-27T15:21:26.845Z,14.34
2022-12-27T15:24:30.015Z,14.37
2022-12-27T15:27:26.787Z,14.31
2022-12-27T15:30:35.309Z,14.24
2022-12-27T15:33:21.634Z,14.21
2022-12-27T15:35:55.949Z,14.16
2022-12-27T15:38:52.890Z,14.24
2022-12-27T15:41:47.264Z,14.24
2022-12-27T15:44:32.207Z,14.07
2022-12-27T15:47:31.844Z,13.98
2022-12-27T15:50:35.680Z,13.97
2022-12-27T15:53:12.227Z,14.02
2022-12-27T15:55:57.317Z,13.97
2022-12-27T15:58:25.578Z,13.84
2022-12-27T16:01:22.049Z,13.98
2022-12-27T16:03:53.449Z,13.82
2022-12-27T16:06:50.797Z,13.84
2022-12-27T16:09:23.466Z,13.87
2022-12-27T16:12:11.459Z,13.82
2022-12-27T16:14:40.563Z,13.85
2022-12-27T16:17:48.116Z,13.78
2022-12-27T16:20:18.105Z,13.67
2022-12-27T16:22:55.419Z,13.49
2022-12-27T16:25:31.303Z,13.44
2022-12-27T16:28:25.492Z,13.37
2022-12-27T16:30:57.700Z,13.29
2022-12-27T16:33:27.350Z,13.26
2022-12-27T16:36:12.480Z,13.18
2022-12-27T16:38:45.289Z,13.17
2022-12-27T16:41:41.235Z,13.08
2022-12-27T16:44:38.589Z,13.00
2022-12-27T16:47:43.988Z,13.04
2022-12-27T16:50:32.609Z,13.00
2022-12-27T16:53:07.862Z,12.89
2022-12-27T16:56:09.445Z,12.82
2022-12-27T16:58:38.093Z,12.87
2022-12-27T17:01:18.783Z,12.88
2022-12-27T17:03:47.916Z,12.78
2022-12-27T17:06:34.052Z,12.81
2022-12-27T17:09:10.259Z,12.79
2022-12-27T17:11:52.119Z,12.75
2022-12-27T17:14:20.284Z,12.82
2022-12-27T17:17:23.259Z,12.77
2022-12-27T17:20:06.522Z,12.83
2022-12-27T17:22:35.880Z,12.88
2022-12-27T17:25:03.949Z,12.97
2022-12-27T17:28:08.022Z,12.97
2022-12-27T17:30:46.661Z,13.00
2022-12-27T17:33:26.103Z,13.02
2022-12-27T17:36:26.592Z,12.96
2022-12-27T17:39:18.432Z,12.94
2022-12-27T17:42:24.003Z,12.85
2022-12-27T17:45:08.994Z,12.86
2022-12-27T17:47:57.246Z,12.85
2022-12-27T17:50:26.465Z,12.86
2022-12-27T17:53:30.620Z,12.83
2022-12-27T17:56:40.240Z,12.74
2022-12-27T17:59:08.511Z,12.74
2022-12-27T18:01:40.659Z,12.76
2022-12-27T18:04:07.982Z,12.77
2022-12-27T18:06:37.119Z,12.69
2022-12-27T18:09:04.575Z,12.77
2022-12-27T18:11:34.885Z,12.77
2022-12-27T18:14:01.938Z,12.79
2022-12-27T18:16:47.777Z,12.71
2022-12-27T18:19:19.659Z,12.62
2022-12-27T18:21:58.274Z,12.61
2022-12-27T18:24:31.520Z,12.56
2022-12-27T18:27:06.637Z,12.52
2022-12-27T18:29:34.186Z,12.37
2022-12-27T18:32:05.427Z,12.33
2022-12-27T18:34:46.135Z,12.33
2022-12-27T18:37:23.934Z,12.29
2022-12-27T18:39:55.773Z,12.25
2022-12-27T18:42:32.655Z,12.20
2022-12-27T18:45:19.360Z,12.15
2022-12-27T18:47:48.573Z,12.15
2022-12-27T18:50:25.089Z,12.12
2022-12-27T18:53:22.576Z,12.10
2022-12-27T18:56:01.035Z,12.10
2022-12-27T18:58:27.995Z,12.08
2022-12-27T19:01:04.100Z,12.10
2022-12-27T19:03:36.534Z,12.15
2022-12-27T19:06:10.940Z,12.09
2022-12-27T19:08:44.148Z,12.17
2022-12-27T19:11:28.415Z,12.19
2022-12-27T19:14:00.461Z,12.24
2022-12-27T19:16:30.097Z,12.37
2022-12-27T19:19:02.471Z,12.47
2022-12-27T19:21:32.940Z,12.45
2022-12-27T19:24:19.592Z,12.54
2022-12-27T19:26:46.194Z,12.54
2022-12-27T19:29:20.338Z,12.60
2022-12-27T19:32:09.000Z,12.69
2022-12-27T19:34:57.625Z,12.65
2022-12-27T19:37:29.583Z,12.67
2022-12-27T19:39:57.212Z,12.68
2022-12-27T19:42:30.712Z,12.68
2022-12-27T19:44:57.417Z,12.66
2022-12-27T19:47:24.061Z,12.66
2022-12-27T19:49:50.643Z,12.70
2022-12-27T19:52:23.861Z,12.65
2022-12-27T19:54:52.868Z,12.62
2022-12-27T19:57:19.843Z,12.59
2022-12-27T19:59:46.483Z,12.68
2022-12-27T20:02:13.575Z,12.70
2022-12-27T20:04:40.293Z,12.75
2022-12-27T20:07:06.997Z,12.77
2022-12-27T20:09:33.588Z,12.74
2022-12-27T20:12:00.182Z,12.77
2022-12-27T20:14:26.923Z,12.81
2022-12-27T20:16:53.583Z,12.82
2022-12-27T20:19:20.304Z,12.75
2022-12-27T20:21:47.153Z,12.77
2022-12-27T20:24:14.164Z,12.76
2022-12-27T20:26:41.735Z,12.79
2022-12-27T20:29:09.265Z,12.80
2022-12-27T20:31:43.890Z,12.80
2022-12-27T20:34:12.177Z,12.78
2022-12-27T20:36:38.776Z,12.79
2022-12-27T20:39:07.269Z,12.78
2022-12-27T20:41:34.278Z,12.76
2022-12-27T20:44:01.037Z,12.76
2022-12-27T20:46:27.902Z,12.78
2022-12-27T20:48:55.777Z,12.78
2022-12-27T20:51:25.574Z,12.72
2022-12-27T20:53:56.895Z,12.78
2022-12-27T20:56:24.657Z,12.70
2022-12-27T20:58:51.659Z,12.75
2022-12-27T21:01:23.725Z,12.70
2022-12-27T21:03:50.476Z,12.66
2022-12-27T21:06:20.698Z,12.60
2022-12-27T21:08:55.962Z,12.50
2022-12-27T21:11:27.082Z,12.63
2022-12-27T21:13:54.713Z,12.55
2022-12-27T21:16:23.835Z,12.60
2022-12-27T21:18:51.016Z,12.65
2022-12-27T21:21:20.083Z,12.59
2022-12-27T21:23:47.602Z,12.63
2022-12-27T21:26:21.151Z,12.54
2022-12-27T21:28:48.549Z,12.54
2022-12-27T21:31:17.214Z,12.43
2022-12-27T21:33:44.544Z,12.41
2022-12-27T21:36:22.736Z,12.43
2022-12-27T21:38:49.965Z,12.43
2022-12-27T21:41:28.527Z,12.17
2022-12-27T21:43:55.151Z,12.19
2022-12-27T21:46:39.846Z,12.16
2022-12-27T21:49:13.550Z,12.11
2022-12-27T21:51:41.630Z,12.10
2022-12-27T21:54:09.175Z,12.05
2022-12-27T21:56:35.837Z,12.05
2022-12-27T21:59:05.530Z,12.08
2022-12-27T22:01:51.265Z,12.06
2022-12-27T22:04:21.080Z,11.91
2022-12-27T22:06:48.214Z,11.84
2022-12-27T22:09:15.516Z,11.86
2022-12-27T22:11:42.501Z,11.79
2022-12-27T22:14:09.244Z,11.86
2022-12-27T22:16:37.976Z,11.89
2022-12-27T22:19:12.624Z,11.91
2022-12-27T22:21:40.579Z,11.82
2022-12-27T22:24:10.682Z,11.73
2022-12-27T22:26:37.718Z,11.68
2022-12-27T22:29:05.662Z,11.59
2022-12-27T22:31:35.432Z,11.51
2022-12-27T22:34:03.549Z,11.49
2022-12-27T22:36:30.686Z,11.33
2022-12-27T22:38:58.821Z,11.33
2022-12-27T22:41:28.681Z,11.16
2022-12-27T22:43:57.339Z,11.22
2022-12-27T22:46:24.311Z,11.02
2022-12-27T22:48:55.925Z,11.26
2022-12-27T22:51:28.629Z,11.41
2022-12-27T22:53:56.725Z,11.55
2022-12-27T22:56:29.525Z,11.65
2022-12-27T22:58:56.226Z,11.75
2022-12-27T23:01:27.704Z,11.80
2022-12-27T23:03:55.636Z,11.79
2022-12-27T23:06:23.702Z,11.93
2022-12-27T23:08:51.029Z,11.88
2022-12-27T23:11:20.989Z,11.79
2022-12-27T23:13:49.187Z,11.64
2022-12-27T23:16:16.230Z,11.54
2022-12-27T23:18:42.972Z,11.48
2022-12-27T23:21:21.332Z,11.43
2022-12-27T23:23:51.234Z,11.44
2022-12-27T23:26:21.139Z,11.27
2022-12-27T23:28:48.762Z,11.20
2022-12-27T23:31:15.789Z,11.08
2022-12-27T23:33:43.726Z,11.00
2022-12-27T23:36:12.540Z,11.19
2022-12-27T23:38:40.291Z,11.16
2022-12-27T23:41:08.776Z,11.26
2022-12-27T23:43:55.447Z,11.19
2022-12-27T23:46:27.450Z,11.18
2022-12-27T23:48:55.050Z,11.29
2022-12-27T23:51:22.392Z,11.11
2022-12-27T23:53:49.871Z,11.14
2022-12-27T23:56:18.558Z,11.08
2022-12-27T23:58:46.425Z,11.00
